Time;durP1;ratioP1;P1;durP2;ratioP2;P2;SDS_P1;SDS_P2;PMS_P1;PMS_P2;Temp;Humidity;BMP_temperature;BMP_pressure;BME280_temperature;BME280_humidity;BME280_pressure;Samples;Min_cycle;Max_cycle;Signal;HPM_P1;HPM_P2
2022/08/03 00:02:21;;;;;;;15.45;5.80;;;;;;;21.90;52.08;99511.91;5113412;28;20043;-73
2022/08/03 00:04:46;;;;;;;16.25;6.28;;;;;;;21.88;51.94;99508.56;5094676;28;20500;-74
2022/08/03 00:07:12;;;;;;;14.60;6.10;;;;;;;21.87;52.07;99505.03;5115682;28;20061;-74
2022/08/03 00:09:37;;;;;;;24.13;6.78;;;;;;;21.88;52.11;99509.38;5133630;28;20031;-71
2022/08/03 00:12:03;;;;;;;21.75;6.68;;;;;;;21.90;51.95;99509.22;5123517;28;20042;-73
2022/08/03 00:14:28;;;;;;;14.95;5.65;;;;;;;21.91;52.06;99505.50;5113307;27;20035;-73
2022/08/03 00:16:54;;;;;;;12.57;6.55;;;;;;;21.89;52.02;99511.06;5119049;27;20142;-71
2022/08/03 00:19:19;;;;;;;12.15;5.68;;;;;;;21.91;51.91;99509.00;5116199;27;20027;-70
2022/08/03 00:21:45;;;;;;;14.73;5.45;;;;;;;21.98;51.74;99509.03;5121194;27;20050;-68
2022/08/03 00:24:11;;;;;;;11.07;6.03;;;;;;;22.00;51.65;99512.38;5113838;27;20028;-76
2022/08/03 00:26:36;;;;;;;14.63;5.28;;;;;;;22.05;51.69;99514.47;5112589;27;20023;-77
2022/08/03 00:29:02;;;;;;;12.15;5.63;;;;;;;22.08;51.68;99509.53;5115043;27;20046;-76
2022/08/03 00:31:27;;;;;;;13.77;5.63;;;;;;;22.11;51.76;99511.00;5112258;28;20055;-74
2022/08/03 00:33:53;;;;;;;14.88;5.20;;;;;;;22.13;51.65;99508.94;5111151;27;20039;-74
2022/08/03 00:36:18;;;;;;;8.63;5.20;;;;;;;22.15;51.34;99508.75;5112861;27;20031;-76
2022/08/03 00:38:44;;;;;;;12.75;5.93;;;;;;;22.14;51.36;99510.59;5132821;28;20054;-74
2022/08/03 00:41:10;;;;;;;11.40;4.80;;;;;;;22.09;51.18;99510.38;5120918;28;20050;-76
2022/08/03 00:43:35;;;;;;;14.80;6.10;;;;;;;22.11;51.26;99505.63;5083007;28;78471;-73
2022/08/03 00:46:00;;;;;;;14.73;5.43;;;;;;;22.08;51.26;99506.00;5079907;28;20086;-74
2022/08/03 00:48:26;;;;;;;10.98;5.03;;;;;;;22.09;51.32;99505.81;5080213;28;20063;-74
2022/08/03 00:50:52;;;;;;;12.70;5.30;;;;;;;22.17;51.02;99501.31;5077890;28;20487;-73
2022/08/03 00:53:18;;;;;;;10.43;5.10;;;;;;;22.21;50.97;99508.78;5085699;28;20510;-74
2022/08/03 00:55:44;;;;;;;13.23;5.32;;;;;;;22.20;51.03;99501.72;5075261;28;20071;-75
2022/08/03 00:58:10;;;;;;;20.27;6.07;;;;;;;22.21;51.03;99508.78;5075752;28;20052;-76
2022/08/03 01:00:38;;;;;;;13.40;5.65;;;;;;;22.22;50.85;99501.53;5090812;28;20494;-75
2022/08/03 01:03:08;;;;;;;12.98;5.30;;;;;;;22.16;50.92;99503.16;5078373;28;20047;-76
2022/08/03 01:05:51;;;;;;;15.68;6.15;;;;;;;22.16;50.97;99495.06;5095326;28;20504;-75
2022/08/03 01:08:52;;;;;;;14.82;5.28;;;;;;;22.16;50.82;99497.75;5095598;28;20035;-75
2022/08/03 01:11:26;;;;;;;;;;;;;;;22.10;50.93;99498.56;5075082;28;20025;-75
2022/08/03 01:13:51;;;;;;;12.57;5.95;;;;;;;22.14;50.84;99493.59;5080995;28;20036;-75
2022/08/03 01:16:30;;;;;;;11.63;5.47;;;;;;;22.20;50.74;99503.59;5092204;28;20049;-75
2022/08/03 01:19:11;;;;;;;11.27;5.28;;;;;;;22.19;50.80;99505.44;5094855;28;20044;-76
2022/08/03 01:22:15;;;;;;;12.50;5.00;;;;;;;22.15;50.74;99493.41;5093090;28;20134;-75
2022/08/03 01:25:09;;;;;;;12.98;5.60;;;;;;;22.13;50.42;99497.31;5051943;28;20049;-77
2022/08/03 01:27:46;;;;;;;11.02;5.47;;;;;;;22.10;50.86;99499.38;5091330;28;20036;-77
2022/08/03 01:30:12;;;;;;;21.52;6.72;;;;;;;22.08;51.00;99492.53;5094972;28;20031;-76
2022/08/03 01:33:02;;;;;;;11.23;5.40;;;;;;;22.08;51.05;99495.22;5095124;28;20169;-77
2022/08/03 01:35:49;;;;;;;11.52;5.03;;;;;;;22.09;50.71;99494.19;5081558;28;20447;-77
2022/08/03 01:38:23;;;;;;;12.48;4.70;;;;;;;22.09;50.94;99508.50;5094305;28;20036;-76
2022/08/03 01:40:53;;;;;;;11.80;5.30;;;;;;;22.05;50.71;99492.94;5094797;28;20127;-75
2022/08/03 01:43:22;;;;;;;9.57;4.35;;;;;;;21.98;51.02;99495.56;5087982;28;20044;-75
2022/08/03 01:45:48;;;;;;;8.95;3.97;;;;;;;21.98;51.11;99497.44;5074342;28;20411;-75
2022/08/03 01:48:16;;;;;;;14.88;5.38;;;;;;;21.98;51.02;99508.22;5074834;28;20071;-75
2022/08/03 01:50:43;;;;;;;13.45;5.70;;;;;;;22.01;51.24;99499.72;5074533;28;20142;-75
2022/08/03 01:53:13;;;;;;;8.88;4.85;;;;;;;22.08;50.83;99508.72;5079913;28;20123;-75
2022/08/03 01:55:39;;;;;;;12.50;5.13;;;;;;;22.14;50.59;99505.19;5074447;28;20115;-76
2022/08/03 01:58:07;;;;;;;15.07;5.45;;;;;;;22.16;50.32;99499.63;5082774;28;20135;-76
2022/08/03 02:00:36;;;;;;;14.98;5.05;;;;;;;22.16;50.50;99508.53;5093211;28;20043;-74
2022/08/03 02:03:06;;;;;;;14.70;4.70;;;;;;;22.18;50.42;99511.06;5094791;28;20038;-75
2022/08/03 02:05:33;;;;;;;10.68;5.22;;;;;;;22.20;50.41;99511.69;5093774;28;20040;-74
2022/08/03 02:08:01;;;;;;;12.88;5.00;;;;;;;22.24;50.43;99519.19;5074656;28;20035;-74
2022/08/03 02:10:27;;;;;;;17.13;4.95;;;;;;;22.25;50.41;99520.00;5074419;28;20123;-76
2022/08/03 02:12:54;;;;;;;12.15;5.15;;;;;;;22.28;50.30;99516.09;5074611;28;20036;-76
2022/08/03 02:15:20;;;;;;;15.45;6.68;;;;;;;22.29;50.60;99513.19;5074577;28;20491;-76
2022/08/03 02:17:47;;;;;;;21.75;5.85;;;;;;;22.31;50.51;99511.13;5089207;28;20043;-76
2022/08/03 02:20:14;;;;;;;9.70;5.20;;;;;;;22.27;50.51;99520.63;5094106;28;20498;-76
2022/08/03 02:22:41;;;;;;;13.43;4.50;;;;;;;22.22;50.71;99518.53;5093626;28;20040;-76
2022/08/03 02:25:09;;;;;;;12.70;6.25;;;;;;;22.17;50.95;99515.59;5077961;28;20040;-77
2022/08/03 02:27:37;;;;;;;13.68;6.38;;;;;;;22.17;51.09;99520.16;5085356;28;20563;-77
2022/08/03 02:30:08;;;;;;;9.27;4.88;;;;;;;22.17;51.27;99522.84;5080720;28;20039;-78
2022/08/03 02:32:35;;;;;;;;;;;;;;;22.07;51.52;99513.25;5075514;28;20035;-76
2022/08/03 02:35:04;;;;;;;7.28;4.32;;;;;;;22.05;51.43;99511.78;5090600;28;19965;-77
2022/08/03 02:37:34;;;;;;;12.23;6.43;;;;;;;22.07;51.55;99521.31;5094565;28;20046;-78
2022/08/03 02:40:06;;;;;;;16.90;6.18;;;;;;;22.09;51.40;99521.16;5094301;28;20081;-78
2022/08/03 02:42:34;;;;;;;8.45;5.18;;;;;;;22.12;51.39;99528.00;5093286;28;20028;-76
2022/08/03 02:45:04;;;;;;;9.70;5.30;;;;;;;22.18;51.09;99519.13;5075225;28;20115;-75
2022/08/03 02:47:31;;;;;;;15.18;4.72;;;;;;;22.16;50.92;99524.72;5093518;28;20081;-75
2022/08/03 02:49:58;;;;;;;7.88;4.30;;;;;;;22.24;50.88;99526.41;5094024;28;20101;-75
2022/08/03 02:52:27;;;;;;;13.07;4.70;;;;;;;22.25;50.97;99518.16;5093349;28;20093;-75
2022/08/03 02:54:57;;;;;;;19.05;5.00;;;;;;;22.28;51.19;99522.31;5093611;28;20114;-76
2022/08/03 02:57:26;;;;;;;9.02;5.25;;;;;;;22.31;51.13;99529.16;5093207;28;20048;-75
2022/08/03 02:59:54;;;;;;;15.00;4.75;;;;;;;22.31;51.30;99523.75;5091925;28;20036;-76
2022/08/03 03:02:20;;;;;;;11.23;5.03;;;;;;;22.30;51.43;99531.03;5078473;28;20043;-76
2022/08/03 03:04:49;;;;;;;10.48;4.43;;;;;;;22.32;51.44;99536.22;5073450;28;20035;-76
2022/08/03 03:07:16;;;;;;;14.63;4.70;;;;;;;22.30;51.48;99532.88;5071137;28;20119;-77
2022/08/03 03:09:42;;;;;;;11.40;5.38;;;;;;;22.33;51.61;99533.34;5055085;28;20025;-76
2022/08/03 03:12:09;;;;;;;10.10;4.75;;;;;;;22.38;51.56;99535.44;5081989;28;20051;-77
2022/08/03 03:14:36;;;;;;;10.52;4.80;;;;;;;22.39;51.59;99537.91;5075870;28;20056;-77
2022/08/03 03:17:03;;;;;;;12.75;4.97;;;;;;;22.47;51.15;99538.81;5072720;28;20029;-76
2022/08/03 03:19:31;;;;;;;12.38;4.70;;;;;;;22.55;50.88;99534.09;5072996;28;20024;-76
2022/08/03 03:22:00;;;;;;;9.63;5.35;;;;;;;22.63;50.68;99537.66;5083798;28;20035;-76
2022/08/03 03:24:27;;;;;;;13.60;5.22;;;;;;;22.69;50.38;99535.00;5092503;28;20398;-75
2022/08/03 03:26:53;;;;;;;10.07;5.00;;;;;;;22.81;50.14;99534.41;5083803;28;20027;-76
2022/08/03 03:29:19;;;;;;;10.52;4.60;;;;;;;22.93;49.65;99542.75;5072842;28;20107;-76
2022/08/03 03:31:45;;;;;;;12.88;5.28;;;;;;;23.02;49.39;99536.16;5081381;28;20046;-75
2022/08/03 03:34:11;;;;;;;12.43;5.10;;;;;;;23.08;49.29;99543.44;5092692;28;20100;-76
2022/08/03 03:36:36;;;;;;;14.32;4.60;;;;;;;23.15;49.17;99538.91;5084779;28;20189;-75
2022/08/03 03:39:02;;;;;;;9.63;5.00;;;;;;;23.15;48.83;99540.75;5072882;28;20038;-76
2022/08/03 03:41:28;;;;;;;11.52;5.32;;;;;;;23.26;48.67;99547.47;5074257;28;20474;-78
2022/08/03 03:43:54;;;;;;;10.82;5.93;;;;;;;23.31;48.77;99540.41;5072907;28;20040;-77
2022/08/03 03:46:20;;;;;;;10.57;4.72;;;;;;;23.38;48.29;99545.84;5078465;28;20371;-77
2022/08/03 03:48:45;;;;;;;7.35;4.50;;;;;;;23.43;48.18;99546.06;5093275;28;20066;-75
2022/08/03 03:51:11;;;;;;;7.25;4.03;;;;;;;23.48;48.27;99545.44;5093103;28;20122;-75
2022/08/03 03:53:37;;;;;;;11.27;5.10;;;;;;;23.55;48.28;99551.66;5073848;28;20040;-75
2022/08/03 03:56:03;;;;;;;13.60;5.05;;;;;;;23.59;48.31;99555.63;5091102;28;20059;-75
2022/08/03 03:58:30;;;;;;;13.63;5.03;;;;;;;23.64;48.13;99555.00;5092891;28;20088;-75
2022/08/03 04:00:56;;;;;;;16.90;6.30;;;;;;;23.69;48.39;99548.97;5087695;28;20479;-75
2022/08/03 04:03:21;;;;;;;13.40;5.05;;;;;;;23.74;48.05;99555.44;5072705;28;20039;-74
2022/08/03 04:11:23;;;;;;;20.30;5.15;;;;;;;23.83;48.07;99552.53;5072841;28;20093;-74
2022/08/03 04:14:14;;;;;;;15.15;5.45;;;;;;;23.81;48.17;99560.84;5072493;28;20111;-75
2022/08/03 04:16:41;;;;;;;;;;;;;;;23.72;48.27;99556.66;5060728;28;20037;-75
2022/08/03 04:19:09;;;;;;;15.15;5.20;;;;;;;23.77;48.34;99565.00;5084032;28;19926;-74
2022/08/03 04:21:39;;;;;;;10.63;5.32;;;;;;;23.81;47.80;99562.72;5095157;28;20118;-74
2022/08/03 04:24:08;;;;;;;15.35;5.72;;;;;;;23.83;47.66;99564.16;5096160;28;20040;-75
2022/08/03 04:26:38;;;;;;;11.70;5.60;;;;;;;23.87;47.77;99567.28;5083820;28;20036;-74
2022/08/03 04:29:05;;;;;;;14.10;5.15;;;;;;;23.91;47.64;99563.13;5076344;28;20111;-74
2022/08/03 04:31:31;;;;;;;10.68;4.95;;;;;;;23.98;47.33;99566.69;5076084;28;20032;-75
2022/08/03 04:33:58;;;;;;;15.15;5.93;;;;;;;24.05;47.61;99561.28;5081148;28;20119;-74
2022/08/03 04:36:29;;;;;;;11.13;5.00;;;;;;;24.14;47.07;99564.59;5086437;28;20086;-72
2022/08/03 04:39:09;;;;;;;;;;;;;;;24.17;46.99;99556.09;5076556;28;20032;-73
2022/08/03 04:41:35;;;;;;;11.63;4.80;;;;;;;24.29;46.61;99561.66;5074266;28;19975;-75
2022/08/03 04:44:01;;;;;;;14.68;5.65;;;;;;;24.42;46.73;99564.34;5075672;28;20119;-74
2022/08/03 04:46:33;;;;;;;14.23;5.47;;;;;;;24.69;46.14;99569.72;5082025;28;20051;-74
2022/08/03 04:49:00;;;;;;;10.80;5.43;;;;;;;24.98;45.60;99562.94;5095738;28;20089;-73
2022/08/03 04:51:26;;;;;;;14.43;5.90;;;;;;;25.28;45.22;99567.81;5087130;28;20033;-73
2022/08/03 04:53:51;;;;;;;13.80;5.10;;;;;;;25.57;44.56;99562.84;5075623;28;20041;-74
2022/08/03 04:56:17;;;;;;;11.98;4.63;;;;;;;25.87;43.72;99578.47;5077267;28;20412;-73
2022/08/03 04:58:43;;;;;;;16.80;5.45;;;;;;;26.11;43.30;99565.16;5094897;28;20028;-74
2022/08/03 05:01:08;;;;;;;8.45;5.22;;;;;;;26.31;42.84;99569.56;5095608;28;20035;-74
2022/08/03 05:03:34;;;;;;;10.00;4.57;;;;;;;26.49;42.62;99564.19;5095815;28;20040;-74
2022/08/03 05:05:59;;;;;;;9.82;4.25;;;;;;;26.66;42.38;99563.56;5085800;28;20024;-74
2022/08/03 05:08:25;;;;;;;11.25;4.70;;;;;;;26.79;41.94;99568.88;5079412;28;20501;-74
2022/08/03 05:10:50;;;;;;;12.07;4.20;;;;;;;26.92;42.05;99567.06;5095813;28;20498;-74
2022/08/03 05:13:16;;;;;;;8.20;4.63;;;;;;;27.05;41.12;99561.44;5095871;28;20092;-73
2022/08/03 05:15:41;;;;;;;10.90;4.55;;;;;;;27.17;40.90;99563.38;5095638;28;20024;-72
2022/08/03 05:18:07;;;;;;;7.90;4.57;;;;;;;27.28;40.99;99568.03;5094434;28;20514;-73
2022/08/03 05:20:32;;;;;;;12.90;4.05;;;;;;;27.38;40.75;99570.19;5093266;28;20036;-73
2022/08/03 05:23:00;;;;;;;9.55;4.68;;;;;;;27.49;40.52;99560.47;5094221;28;20035;-73
2022/08/03 05:25:26;;;;;;;7.68;4.72;;;;;;;27.60;40.47;99562.38;5094789;28;20032;-73
2022/08/03 05:27:51;;;;;;;8.23;3.97;;;;;;;27.67;40.37;99571.25;5095468;28;20038;-73
2022/08/03 05:30:17;;;;;;;7.07;4.78;;;;;;;27.75;40.13;99567.38;5092159;28;20406;-72
2022/08/03 05:32:42;;;;;;;14.23;5.20;;;;;;;27.83;40.33;99568.94;5075559;28;20068;-73
2022/08/03 05:35:08;;;;;;;12.90;4.57;;;;;;;27.87;39.97;99568.22;5094987;28;20050;-72
2022/08/03 05:37:34;;;;;;;9.63;5.45;;;;;;;27.94;39.28;99573.56;5078579;28;20525;-73
2022/08/03 05:39:59;;;;;;;14.73;5.00;;;;;;;27.96;39.69;99571.44;5077659;28;20035;-72
2022/08/03 05:42:25;;;;;;;9.15;4.50;;;;;;;28.02;39.93;99575.91;5085690;28;20437;-73
2022/08/03 05:44:50;;;;;;;8.43;4.90;;;;;;;28.06;39.55;99570.00;5094868;28;20406;-73
2022/08/03 05:47:16;;;;;;;11.20;5.57;;;;;;;28.06;39.17;99570.84;5094370;28;20138;-74
2022/08/03 05:49:41;;;;;;;14.95;5.85;;;;;;;28.06;38.82;99576.28;5090910;28;20044;-72
2022/08/03 05:52:06;;;;;;;9.68;5.18;;;;;;;27.96;39.57;99567.88;5081319;28;20051;-74
2022/08/03 05:54:32;;;;;;;9.63;5.57;;;;;;;27.92;39.26;99574.84;5074684;28;20040;-74
2022/08/03 05:56:58;;;;;;;15.95;5.80;;;;;;;27.92;39.40;99575.66;5074959;28;20613;-74
2022/08/03 05:59:24;;;;;;;8.13;4.70;;;;;;;27.80;39.71;99572.94;5078929;28;20035;-73
2022/08/03 06:01:50;;;;;;;6.05;4.55;;;;;;;27.70;40.23;99575.41;5079545;28;20123;-73
2022/08/03 06:04:16;;;;;;;13.10;5.15;;;;;;;27.70;39.92;99573.53;5075580;28;20079;-72
2022/08/03 06:06:42;;;;;;;11.90;4.90;;;;;;;27.75;40.14;99578.25;5084108;28;20452;-72
2022/08/03 06:09:09;;;;;;;14.10;4.40;;;;;;;27.82;39.89;99576.25;5092594;28;20042;-74
2022/08/03 06:11:35;;;;;;;10.15;5.53;;;;;;;27.81;39.90;99571.88;5077713;28;20029;-73
2022/08/03 06:14:00;;;;;;;17.40;5.65;;;;;;;27.74;40.29;99573.03;5080752;28;20115;-72
2022/08/03 06:16:26;;;;;;;15.63;6.28;;;;;;;27.61;40.57;99577.63;5076754;28;20521;-73
2022/08/03 06:18:51;;;;;;;15.60;5.55;;;;;;;27.40;40.45;99582.50;5094268;28;20031;-73
2022/08/03 06:21:17;;;;;;;13.13;4.80;;;;;;;27.17;41.07;99575.09;5085269;28;20390;-73
2022/08/03 06:23:44;;;;;;;25.10;6.13;;;;;;;27.01;41.17;99576.53;5078282;28;20032;-74
2022/08/03 06:26:10;;;;;;;8.23;4.75;;;;;;;26.88;40.74;99569.41;5072634;28;20453;-75
2022/08/03 06:28:35;;;;;;;16.33;4.30;;;;;;;26.76;41.28;99569.28;5073575;28;20040;-74
2022/08/03 06:31:01;;;;;;;18.80;5.50;;;;;;;26.71;41.05;99577.28;5078354;28;20075;-74
2022/08/03 06:33:27;;;;;;;21.20;5.35;;;;;;;26.70;41.67;99575.63;5087144;28;20040;-74
2022/08/03 06:35:53;;;;;;;17.60;5.20;;;;;;;26.68;41.13;99588.59;5083122;28;20514;-73
2022/08/03 06:38:18;;;;;;;13.88;5.30;;;;;;;26.62;40.92;99586.78;5073393;28;20042;-74
2022/08/03 06:40:44;;;;;;;16.05;4.68;;;;;;;26.59;40.57;99590.78;5074184;28;20036;-74
2022/08/03 06:43:09;;;;;;;20.67;4.28;;;;;;;26.50;40.42;99587.53;5093855;28;20036;-74
2022/08/03 06:45:35;;;;;;;12.90;4.47;;;;;;;26.46;40.94;99588.22;5089352;28;20036;-74
2022/08/03 06:48:09;;;;;;;13.77;4.00;;;;;;;26.48;40.31;99592.34;5080130;28;20089;-73
2022/08/03 06:50:37;;;;;;;11.00;3.47;;;;;;;26.48;40.83;99578.78;5073266;28;20406;-74
2022/08/03 06:53:04;;;;;;;9.88;3.83;;;;;;;26.48;40.42;99584.22;5076721;28;20044;-73
2022/08/03 06:55:31;;;;;;;13.57;4.25;;;;;;;26.48;40.22;99581.50;5073628;28;20036;-74
2022/08/03 06:57:56;;;;;;;8.38;3.55;;;;;;;26.50;40.65;99586.69;5073894;28;20055;-74
2022/08/03 07:00:22;;;;;;;8.07;3.58;;;;;;;26.49;40.72;99585.88;5089530;28;20041;-74
2022/08/03 07:02:48;;;;;;;8.90;3.40;;;;;;;26.46;40.33;99586.31;5079661;28;20083;-74
2022/08/03 07:05:14;;;;;;;7.88;3.63;;;;;;;26.42;40.10;99585.09;5086464;28;20039;-73
2022/08/03 07:07:40;;;;;;;11.93;3.83;;;;;;;26.38;39.94;99586.63;5092611;28;20028;-72
2022/08/03 07:10:06;;;;;;;12.80;3.92;;;;;;;26.39;40.30;99585.56;5089399;28;20028;-72
2022/08/03 07:12:33;;;;;;;6.50;3.50;;;;;;;26.42;40.54;99590.53;5076529;28;20036;-73
2022/08/03 07:15:00;;;;;;;8.93;3.35;;;;;;;26.40;40.28;99591.81;5077946;28;20110;-74
2022/08/03 07:17:25;;;;;;;10.38;3.13;;;;;;;26.39;40.51;99590.16;5083741;28;20119;-74
2022/08/03 07:19:51;;;;;;;6.53;3.22;;;;;;;26.40;40.41;99589.91;5086165;28;20127;-75
2022/08/03 07:22:16;;;;;;;4.63;3.38;;;;;;;26.40;40.46;99595.34;5059819;28;20376;-75
2022/08/03 07:24:42;;;;;;;18.15;3.45;;;;;;;26.39;40.20;99596.44;5072648;28;20063;-75
2022/08/03 07:27:09;;;;;;;4.72;2.80;;;;;;;26.38;39.93;99594.75;5073064;28;20132;-74
2022/08/03 07:29:35;;;;;;;5.68;2.80;;;;;;;26.35;39.69;99589.78;5075481;28;20499;-75
2022/08/03 07:32:02;;;;;;;6.68;3.40;;;;;;;26.36;39.71;99596.88;5083952;28;20032;-77
2022/08/03 07:34:28;;;;;;;5.78;3.10;;;;;;;26.37;39.55;99592.25;5093414;28;20027;-73
2022/08/03 07:36:53;;;;;;;4.60;2.90;;;;;;;26.39;39.85;99595.59;5075581;28;20032;-73
2022/08/03 07:39:19;;;;;;;9.38;3.22;;;;;;;26.41;39.65;99599.72;5074744;28;20059;-74
2022/08/03 07:41:45;;;;;;;7.28;3.45;;;;;;;26.43;39.63;99594.91;5084657;28;20040;-73
2022/08/03 07:44:11;;;;;;;5.95;3.10;;;;;;;26.45;39.83;99587.38;5071871;28;20040;-74
2022/08/03 07:46:36;;;;;;;12.75;2.78;;;;;;;26.46;39.78;99597.19;5077745;28;20032;-76
2022/08/03 07:49:02;;;;;;;6.32;3.42;;;;;;;26.51;39.97;99599.22;5074366;28;20429;-75
2022/08/03 07:51:27;;;;;;;9.73;3.13;;;;;;;26.53;39.86;99596.28;5079215;28;20064;-73
2022/08/03 07:53:54;;;;;;;4.40;3.00;;;;;;;26.54;40.15;99600.66;5074634;28;20040;-74
2022/08/03 07:56:20;;;;;;;5.43;2.65;;;;;;;26.56;40.08;99604.81;5067312;28;20048;-75
2022/08/03 07:58:45;;;;;;;5.28;3.00;;;;;;;26.58;39.88;99597.28;5076432;28;20059;-75
2022/08/03 08:01:11;;;;;;;7.22;2.90;;;;;;;26.58;40.15;99599.13;5079424;28;20088;-75
2022/08/03 08:03:36;;;;;;;6.65;3.72;;;;;;;26.59;40.12;99606.22;5077779;28;20501;-75
2022/08/03 08:06:01;;;;;;;4.15;2.90;;;;;;;26.58;40.24;99610.00;5077173;28;20471;-76
2022/08/03 08:08:27;;;;;;;5.15;2.90;;;;;;;26.60;40.12;99613.31;5077995;28;20478;-74
2022/08/03 08:10:52;;;;;;;9.90;3.15;;;;;;;26.60;39.80;99602.47;5086877;28;20040;-76
2022/08/03 08:13:18;;;;;;;8.02;3.65;;;;;;;26.61;39.07;99615.81;5075147;28;20043;-75
2022/08/03 08:15:43;;;;;;;5.72;2.65;;;;;;;26.61;39.34;99613.09;5082677;28;20043;-73
2022/08/03 08:18:12;;;;;;;8.48;3.05;;;;;;;26.61;39.16;99606.84;5074487;28;20443;-74
2022/08/03 08:20:37;;;;;;;12.00;3.00;;;;;;;26.59;39.09;99608.94;5075984;28;20039;-75
2022/08/03 08:23:08;;;;;;;4.22;2.92;;;;;;;26.59;39.27;99614.38;5080382;28;20032;-75
2022/08/03 08:25:42;;;;;;;;;;;;;;;26.50;39.69;99609.25;5076067;28;20036;-73
2022/08/03 08:28:08;;;;;;;3.55;2.40;;;;;;;26.52;39.74;99616.34;5079860;28;19927;-74
2022/08/03 08:30:33;;;;;;;6.28;2.88;;;;;;;26.53;39.78;99618.00;5076694;28;20040;-75
2022/08/03 08:32:59;;;;;;;9.10;3.40;;;;;;;26.54;39.37;99606.09;5079822;28;20081;-75
2022/08/03 08:35:25;;;;;;;10.70;3.80;;;;;;;26.57;39.09;99608.31;5082718;28;20502;-75
2022/08/03 08:37:50;;;;;;;10.05;3.67;;;;;;;26.57;39.15;99614.59;5081016;28;20071;-74
2022/08/03 08:40:19;;;;;;;6.70;3.63;;;;;;;26.57;38.95;99611.88;5082678;28;20036;-75
2022/08/03 08:42:46;;;;;;;10.57;4.50;;;;;;;26.56;38.73;99606.66;5085902;28;20032;-74
2022/08/03 08:45:14;;;;;;;6.22;3.67;;;;;;;26.56;39.05;99603.97;5090443;28;20035;-75
2022/08/03 08:47:45;;;;;;;5.57;3.38;;;;;;;26.55;38.86;99603.13;5071888;28;20603;-75
2022/08/03 08:50:11;;;;;;;11.30;3.83;;;;;;;26.53;39.13;99601.72;5084693;28;20045;-74
2022/08/03 08:52:40;;;;;;;7.53;3.35;;;;;;;26.55;39.24;99605.00;5073902;28;20047;-75
2022/08/03 08:55:08;;;;;;;9.30;3.75;;;;;;;26.58;39.18;99604.56;5084046;28;20119;-74
2022/08/03 08:57:43;;;;;;;8.07;3.70;;;;;;;26.61;39.26;99606.84;5070955;28;20454;-75
2022/08/03 09:00:13;;;;;;;6.57;3.08;;;;;;;26.64;39.06;99606.38;5078563;28;20032;-74
2022/08/03 09:02:41;;;;;;;10.02;3.50;;;;;;;26.68;38.79;99609.47;5056342;28;20047;-73
2022/08/03 09:05:12;;;;;;;6.45;3.10;;;;;;;26.69;39.15;99606.53;5074060;28;20032;-73
2022/08/03 09:07:42;;;;;;;6.15;3.13;;;;;;;26.71;39.44;99607.13;5075587;28;20032;-74
2022/08/03 09:10:09;;;;;;;8.20;3.50;;;;;;;26.70;39.48;99619.03;5078857;28;20043;-74
2022/08/03 09:12:42;;;;;;;8.27;2.95;;;;;;;26.70;39.25;99610.09;5080502;28;20037;-74
2022/08/03 09:15:24;;;;;;;4.53;3.08;;;;;;;26.69;39.74;99611.13;5077919;28;20036;-73
2022/08/03 09:17:52;;;;;;;5.80;3.47;;;;;;;26.68;39.72;99601.34;5078860;28;20174;-71
2022/08/03 09:20:19;;;;;;;7.43;3.47;;;;;;;26.68;39.84;99609.47;5077197;28;20161;-72
2022/08/03 09:23:01;;;;;;;13.88;3.75;;;;;;;26.64;39.73;99599.06;5084433;28;20037;-71
2022/08/03 09:25:32;;;;;;;7.45;3.10;;;;;;;26.63;39.73;99604.72;5087918;28;20075;-71
2022/08/03 09:28:08;;;;;;;4.03;2.78;;;;;;;26.61;39.96;99609.56;5092740;28;20490;-68
2022/08/03 09:30:34;;;;;;;13.73;4.13;;;;;;;26.60;40.05;99607.88;5086538;28;20040;-70
2022/08/03 09:33:01;;;;;;;7.28;2.95;;;;;;;26.59;40.27;99607.06;5080023;28;20507;-71
2022/08/03 09:35:27;;;;;;;4.50;3.25;;;;;;;26.58;40.39;99621.69;5077557;28;20043;-74
2022/08/03 09:38:13;;;;;;;5.82;3.80;;;;;;;26.59;40.29;99617.09;5083952;28;20037;-71
2022/08/03 09:40:47;;;;;;;6.93;3.80;;;;;;;26.56;40.34;99618.38;5076730;28;20043;-73
2022/08/03 09:43:13;;;;;;;6.10;2.83;;;;;;;26.55;40.38;99615.84;5074045;28;20481;-73
2022/08/03 09:45:39;;;;;;;4.95;2.97;;;;;;;26.55;40.40;99611.28;5076753;28;20032;-72
2022/08/03 09:48:21;;;;;;;7.35;3.53;;;;;;;26.55;40.64;99605.00;5080918;28;20032;-73
2022/08/03 09:50:48;;;;;;;7.82;3.35;;;;;;;26.53;40.48;99613.38;5075985;28;20036;-72
2022/08/03 09:53:14;;;;;;;5.57;3.17;;;;;;;26.54;40.33;99615.03;5075737;28;20036;-72
2022/08/03 09:55:52;;;;;;;9.23;3.63;;;;;;;26.56;40.37;99617.53;5074869;28;20036;-73
2022/08/03 09:58:20;;;;;;;5.95;3.60;;;;;;;26.55;40.53;99619.41;5090777;28;20082;-75
2022/08/03 10:00:52;;;;;;;5.18;3.10;;;;;;;26.55;40.41;99615.84;5091497;28;20032;-76
2022/08/03 10:03:18;;;;;;;6.47;3.33;;;;;;;26.54;40.56;99614.22;5076314;28;20066;-73
2022/08/03 10:05:44;;;;;;;7.15;3.03;;;;;;;26.55;40.26;99622.13;5079033;28;20047;-76
2022/08/03 10:08:19;;;;;;;5.88;3.40;;;;;;;26.55;40.26;99608.56;5090179;28;20036;-80
2022/08/03 10:10:47;;;;;;;7.80;4.47;;;;;;;26.55;40.63;99613.16;5063772;28;20093;-74
2022/08/03 10:13:15;;;;;;;6.53;3.70;;;;;;;26.55;40.40;99614.00;5084090;28;20047;-75
2022/08/03 10:15:41;;;;;;;5.78;4.22;;;;;;;26.54;40.66;99604.19;5081469;28;20501;-75
2022/08/03 10:18:07;;;;;;;7.13;4.10;;;;;;;26.53;40.61;99607.16;5091836;28;20031;-74
2022/08/03 10:20:48;;;;;;;6.00;3.60;;;;;;;26.53;40.27;99618.00;5092979;28;20031;-75
2022/08/03 10:23:15;;;;;;;;;;;;;;;26.45;40.48;99606.38;5094783;28;20040;-76
2022/08/03 10:25:44;;;;;;;11.85;3.72;;;;;;;26.52;40.16;99616.34;5094050;28;19919;-73
2022/08/03 10:28:14;;;;;;;9.13;4.18;;;;;;;26.56;40.22;99617.53;5093438;28;20097;-78
2022/08/03 10:30:42;;;;;;;7.13;3.53;;;;;;;26.59;40.11;99611.66;5093926;28;20063;-73
2022/08/03 10:33:20;;;;;;;5.25;3.60;;;;;;;26.60;40.05;99613.31;5087488;28;20407;-72
2022/08/03 10:35:50;;;;;;;5.38;3.60;;;;;;;26.59;40.26;99608.94;5073752;28;20037;-74
2022/08/03 10:38:21;;;;;;;5.93;3.38;;;;;;;26.58;40.27;99604.56;5076476;28;20040;-72
2022/08/03 10:40:52;;;;;;;5.68;3.80;;;;;;;26.58;40.28;99612.72;5073037;28;20098;-71
2022/08/03 10:43:21;;;;;;;5.03;3.28;;;;;;;26.58;40.34;99615.41;5073359;28;20119;-70
2022/08/03 10:45:47;;;;;;;5.47;3.35;;;;;;;26.58;39.57;99613.56;5078395;28;20499;-75
2022/08/03 10:48:14;;;;;;;3.80;3.40;;;;;;;26.62;39.44;99616.63;5081971;28;20436;-77
2022/08/03 10:50:42;;;;;;;6.68;3.38;;;;;;;26.62;39.87;99622.06;5075637;28;20040;-77
2022/08/03 10:53:07;;;;;;;6.85;3.38;;;;;;;26.63;39.97;99619.13;5073546;28;20032;-73
2022/08/03 10:58:53;;;;;;;4.10;3.15;;;;;;;26.64;39.30;99625.38;5080509;28;20533;-79
2022/08/03 11:01:52;;;;;;;6.43;3.13;;;;;;;26.62;39.39;99625.59;5081713;28;20032;-70
2022/08/03 11:04:19;;;;;;;7.57;3.35;;;;;;;26.61;39.20;99626.69;5089556;28;20036;-71
2022/08/03 11:07:37;;;;;;;4.95;3.17;;;;;;;26.62;39.09;99624.78;5191621;27;20213;-80
2022/08/03 11:10:03;;;;;;;6.40;3.50;;;;;;;26.62;38.73;99617.44;5171775;27;20041;-78
2022/08/03 11:12:32;;;;;;;4.47;3.42;;;;;;;26.63;38.92;99616.41;5150680;27;20035;-79
2022/08/03 11:15:04;;;;;;;9.93;4.82;;;;;;;26.63;39.08;99621.00;5130766;28;20031;-79
2022/08/03 11:17:31;;;;;;;4.80;3.35;;;;;;;26.62;39.22;99619.34;5130698;27;20470;-79
2022/08/03 11:19:57;;;;;;;8.23;3.80;;;;;;;26.61;39.49;99620.41;5134212;27;20050;-79
2022/08/03 11:22:23;;;;;;;6.18;3.63;;;;;;;26.63;39.63;99624.53;5150840;27;20039;-80
2022/08/03 11:24:58;;;;;;;9.70;4.35;;;;;;;26.64;39.38;99625.38;5151371;27;20030;-79
2022/08/03 11:27:29;;;;;;;7.72;4.22;;;;;;;26.64;39.17;99625.38;5151113;27;20043;-80
2022/08/03 11:29:58;;;;;;;6.95;3.53;;;;;;;26.63;39.23;99613.69;5151303;27;20062;-78
2022/08/03 11:35:26;;;;;;;7.72;3.55;;;;;;;26.62;39.65;99622.06;5150554;27;20046;-79
2022/08/03 11:37:57;;;;;;;6.80;3.03;;;;;;;26.61;39.56;99617.69;5137078;27;20062;-78
2022/08/03 11:40:48;;;;;;;7.72;2.88;;;;;;;26.61;39.69;99621.25;5150300;27;20035;-78
2022/08/03 11:43:29;;;;;;;6.65;3.55;;;;;;;26.59;39.74;99617.94;5151267;27;20038;-79
2022/08/03 11:46:00;;;;;;;6.35;3.33;;;;;;;26.60;39.86;99624.16;5150286;27;20117;-78
2022/08/03 11:48:43;;;;;;;11.50;3.65;;;;;;;26.60;39.34;99618.75;5151485;27;20085;-78
2022/08/03 11:51:24;;;;;;;6.25;3.20;;;;;;;26.60;39.49;99616.88;5150776;27;20034;-78